createdAt,value
2023-05-14T00:00:34.414Z,99.99
2023-05-14T00:01:34.420Z,99.99
2023-05-14T00:02:34.479Z,99.99
2023-05-14T00:03:34.417Z,99.99
2023-05-14T00:04:34.438Z,99.99
2023-05-14T00:05:34.366Z,99.99
2023-05-14T00:06:34.376Z,99.99
2023-05-14T00:07:34.311Z,99.99
2023-05-14T00:08:34.310Z,99.99
2023-05-14T00:09:34.278Z,99.99
2023-05-14T00:10:34.292Z,99.99
2023-05-14T00:11:34.311Z,99.99
2023-05-14T00:12:34.260Z,99.99
2023-05-14T00:13:34.254Z,99.99
2023-05-14T00:14:34.251Z,99.99
2023-05-14T00:15:34.627Z,99.99
2023-05-14T00:16:34.308Z,99.99
2023-05-14T00:17:34.224Z,99.99
2023-05-14T00:18:34.261Z,99.99
2023-05-14T00:19:34.181Z,99.99
2023-05-14T00:20:34.213Z,99.99
2023-05-14T00:21:34.172Z,99.99
2023-05-14T00:22:34.150Z,99.99
2023-05-14T00:23:34.146Z,99.99
2023-05-14T00:24:34.113Z,99.99
2023-05-14T00:25:34.150Z,99.99
2023-05-14T00:26:34.100Z,99.99
2023-05-14T00:27:34.080Z,99.99
2023-05-14T00:28:34.084Z,99.99
2023-05-14T00:29:34.114Z,99.99
2023-05-14T00:30:34.093Z,99.99
2023-05-14T00:31:34.080Z,99.99
2023-05-14T00:32:34.124Z,99.99
2023-05-14T00:33:34.013Z,99.99
2023-05-14T00:34:34.055Z,99.99
2023-05-14T00:35:34.004Z,99.99
2023-05-14T00:36:33.985Z,99.99
2023-05-14T00:37:33.983Z,99.99
2023-05-14T00:38:33.968Z,99.99
2023-05-14T00:39:33.980Z,100.00
2023-05-14T00:40:33.946Z,99.99
2023-05-14T00:41:33.916Z,99.99
2023-05-14T00:42:33.908Z,99.99
2023-05-14T00:43:33.933Z,99.99
2023-05-14T00:44:33.942Z,99.99
2023-05-14T00:45:33.873Z,99.99
2023-05-14T00:46:33.930Z,99.99
2023-05-14T00:47:33.916Z,99.99
2023-05-14T00:48:33.870Z,99.99
2023-05-14T00:49:33.839Z,100.00
2023-05-14T00:50:33.826Z,99.99
2023-05-14T00:51:33.851Z,99.99
2023-05-14T00:52:33.797Z,99.99
2023-05-14T00:53:33.813Z,99.99
2023-05-14T00:54:33.783Z,99.99
2023-05-14T00:55:33.771Z,99.99
2023-05-14T00:56:33.770Z,99.99
2023-05-14T00:57:33.788Z,99.99
2023-05-14T00:58:33.776Z,99.99
2023-05-14T00:59:33.727Z,99.99
2023-05-14T01:00:33.786Z,99.99
2023-05-14T01:01:33.735Z,99.99
2023-05-14T01:02:33.788Z,99.99
2023-05-14T01:03:33.759Z,99.99
2023-05-14T01:04:33.672Z,99.99
2023-05-14T01:05:33.654Z,99.99
2023-05-14T01:06:33.662Z,99.99
2023-05-14T01:07:33.681Z,99.99
2023-05-14T01:08:33.618Z,99.99
2023-05-14T01:09:33.611Z,99.99
2023-05-14T01:10:33.591Z,99.99
2023-05-14T01:11:33.619Z,99.99
2023-05-14T01:12:33.631Z,99.99
2023-05-14T01:13:33.566Z,99.99
2023-05-14T01:14:33.556Z,99.99
2023-05-14T01:15:33.607Z,99.99
2023-05-14T01:16:33.635Z,99.99
2023-05-14T01:17:33.560Z,99.99
2023-05-14T01:18:33.580Z,99.99
2023-05-14T01:19:33.483Z,99.99
2023-05-14T01:20:33.544Z,99.99
2023-05-14T01:21:33.528Z,99.99
2023-05-14T01:22:33.465Z,99.99
2023-05-14T01:23:33.462Z,99.99
2023-05-14T01:24:33.451Z,99.99
2023-05-14T01:25:33.475Z,99.99
2023-05-14T01:26:33.455Z,99.99
2023-05-14T01:27:33.447Z,99.99
2023-05-14T01:28:33.437Z,99.99
2023-05-14T01:29:33.376Z,99.99
2023-05-14T01:30:33.399Z,99.99
2023-05-14T01:31:33.384Z,99.99
2023-05-14T01:32:33.378Z,99.99
2023-05-14T01:33:33.333Z,99.99
2023-05-14T01:34:33.364Z,99.99
2023-05-14T01:35:33.362Z,99.99
2023-05-14T01:36:33.303Z,99.99
2023-05-14T01:37:33.328Z,99.99
2023-05-14T01:38:33.279Z,99.99
2023-05-14T01:39:33.294Z,99.99
2023-05-14T01:40:33.255Z,99.99
2023-05-14T01:41:33.253Z,99.99
2023-05-14T01:42:33.244Z,99.99
2023-05-14T01:43:33.287Z,99.99
2023-05-14T01:44:33.251Z,99.99
2023-05-14T01:45:33.189Z,99.99
2023-05-14T01:46:33.281Z,99.99
2023-05-14T01:47:33.214Z,99.99
2023-05-14T01:48:33.203Z,99.99
2023-05-14T01:49:33.190Z,99.99
2023-05-14T01:50:33.164Z,99.99
2023-05-14T01:51:33.130Z,99.99
2023-05-14T01:52:33.120Z,99.99
2023-05-14T01:53:33.135Z,99.99
2023-05-14T01:54:33.105Z,99.99
2023-05-14T01:55:33.089Z,99.99
2023-05-14T01:56:33.077Z,99.99
2023-05-14T01:57:33.080Z,99.99
2023-05-14T01:58:33.083Z,99.99
2023-05-14T01:59:33.050Z,99.99
2023-05-14T02:00:33.049Z,99.99
2023-05-14T02:01:33.093Z,99.99
2023-05-14T02:02:33.107Z,99.99
2023-05-14T02:03:33.058Z,99.99
2023-05-14T02:04:32.987Z,99.99
2023-05-14T02:05:32.973Z,99.99
2023-05-14T02:06:32.968Z,99.99
2023-05-14T02:07:32.992Z,99.99
2023-05-14T02:08:32.926Z,99.99
2023-05-14T02:09:32.924Z,99.99
2023-05-14T02:10:32.897Z,99.99
2023-05-14T02:11:32.900Z,99.99
2023-05-14T02:12:32.920Z,99.99
2023-05-14T02:13:32.880Z,99.99
2023-05-14T02:14:32.872Z,99.99
2023-05-14T02:15:32.891Z,99.99
2023-05-14T02:16:32.910Z,99.99
2023-05-14T02:17:32.940Z,99.99
2023-05-14T02:18:32.839Z,99.99
2023-05-14T02:19:32.816Z,99.99
2023-05-14T02:20:32.803Z,99.99
2023-05-14T02:21:32.826Z,99.99
2023-05-14T02:22:32.804Z,99.99
2023-05-14T02:23:41.001Z,99.99
2023-05-14T02:24:33.787Z,99.99
2023-05-14T02:25:32.746Z,99.99
2023-05-14T02:26:32.779Z,99.99
2023-05-14T02:27:32.724Z,99.99
2023-05-14T02:28:32.723Z,99.99
2023-05-14T02:29:32.710Z,99.99
2023-05-14T02:30:32.676Z,99.99
2023-05-14T02:31:32.779Z,99.99
2023-05-14T02:32:32.747Z,99.99
2023-05-14T02:33:32.711Z,99.99
2023-05-14T02:34:32.645Z,99.99
2023-05-14T02:35:32.675Z,99.99
2023-05-14T02:36:32.654Z,99.99
2023-05-14T02:37:32.605Z,99.99
2023-05-14T02:38:32.596Z,99.99
2023-05-14T02:39:32.600Z,99.99
2023-05-14T02:40:32.621Z,99.99
2023-05-14T02:41:32.567Z,99.99
2023-05-14T02:42:32.551Z,99.99
2023-05-14T02:43:32.550Z,99.99
2023-05-14T02:44:32.564Z,99.99
2023-05-14T02:45:32.566Z,99.99
2023-05-14T02:46:32.590Z,99.99
2023-05-14T02:47:32.857Z,99.99
2023-05-14T02:48:32.486Z,99.99
2023-05-14T02:49:32.504Z,99.99
2023-05-14T02:50:32.470Z,99.99
2023-05-14T02:51:32.473Z,99.99
2023-05-14T02:52:32.433Z,99.99
2023-05-14T02:53:32.435Z,99.99
2023-05-14T02:54:32.487Z,99.99
2023-05-14T02:55:32.435Z,99.99
2023-05-14T02:56:32.395Z,99.99
2023-05-14T02:57:32.384Z,99.99
2023-05-14T02:58:32.421Z,99.99
2023-05-14T02:59:32.403Z,99.99
2023-05-14T03:00:32.422Z,99.99
2023-05-14T03:01:32.350Z,99.99
2023-05-14T03:02:32.385Z,99.99
2023-05-14T03:03:32.366Z,99.99
2023-05-14T03:04:32.304Z,99.99
2023-05-14T03:05:32.321Z,99.99
2023-05-14T03:06:32.298Z,99.99
2023-05-14T03:07:32.280Z,99.99
2023-05-14T03:08:32.303Z,99.99
2023-05-14T03:09:32.256Z,99.99
2023-05-14T03:10:32.242Z,99.99
2023-05-14T03:11:32.243Z,99.99
2023-05-14T03:12:32.254Z,99.99
2023-05-14T03:13:32.249Z,99.99
2023-05-14T03:14:32.179Z,99.99
2023-05-14T03:15:32.177Z,99.99
2023-05-14T03:16:32.232Z,99.99
2023-05-14T03:17:32.232Z,99.99
2023-05-14T03:18:32.169Z,99.99
2023-05-14T03:19:32.139Z,99.99
2023-05-14T03:20:32.127Z,99.99
2023-05-14T03:21:32.122Z,99.99
2023-05-14T03:22:32.140Z,99.99
2023-05-14T03:23:32.127Z,99.99
2023-05-14T03:24:32.092Z,99.99
2023-05-14T03:25:32.097Z,99.99
2023-05-14T03:26:32.093Z,99.99
2023-05-14T03:27:32.099Z,99.99
2023-05-14T03:28:32.060Z,99.99
2023-05-14T03:29:32.036Z,99.99
2023-05-14T03:30:32.093Z,99.99
2023-05-14T03:31:32.046Z,99.99
2023-05-14T03:32:32.021Z,99.99
2023-05-14T03:33:31.976Z,99.99
2023-05-14T03:34:31.984Z,99.99
2023-05-14T03:35:31.961Z,99.99
2023-05-14T03:36:31.989Z,99.99
2023-05-14T03:37:31.939Z,99.99
2023-05-14T03:38:31.945Z,99.99
2023-05-14T03:39:31.925Z,99.99
2023-05-14T03:40:31.928Z,99.99
2023-05-14T03:41:31.935Z,99.99
2023-05-14T03:42:31.869Z,99.99
2023-05-14T03:43:31.878Z,99.99
2023-05-14T03:44:31.869Z,99.99
2023-05-14T03:45:31.869Z,99.99
2023-05-14T03:46:31.825Z,99.99
2023-05-14T03:47:31.850Z,99.99
2023-05-14T03:48:31.867Z,99.99
2023-05-14T03:49:31.818Z,99.99
2023-05-14T03:50:31.828Z,99.99
2023-05-14T03:51:31.780Z,99.99
2023-05-14T03:52:31.764Z,99.99
2023-05-14T03:53:31.759Z,99.99
2023-05-14T03:54:31.742Z,99.99
2023-05-14T03:55:31.767Z,99.99
2023-05-14T03:56:31.735Z,99.99
2023-05-14T03:57:31.712Z,99.99
2023-05-14T03:58:31.717Z,99.99
2023-05-14T03:59:31.721Z,99.99
2023-05-14T04:00:31.710Z,99.99
2023-05-14T04:01:31.660Z,99.99
2023-05-14T04:02:31.697Z,99.99
2023-05-14T04:03:32.061Z,99.99
2023-05-14T04:04:31.838Z,99.99
2023-05-14T04:05:31.635Z,100.00
2023-05-14T04:06:31.616Z,99.99
2023-05-14T04:07:31.596Z,99.99
2023-05-14T04:08:31.598Z,99.99
2023-05-14T04:09:31.623Z,99.99
2023-05-14T04:10:31.578Z,100.00
2023-05-14T04:11:31.563Z,99.99
2023-05-14T04:12:31.554Z,99.99
2023-05-14T04:13:31.563Z,99.99
2023-05-14T04:14:31.551Z,99.99
2023-05-14T04:15:31.504Z,99.99
2023-05-14T04:16:31.524Z,99.99
2023-05-14T04:17:31.481Z,99.99
2023-05-14T04:18:31.519Z,99.99
2023-05-14T04:19:31.490Z,99.99
2023-05-14T04:20:31.458Z,99.99
2023-05-14T04:21:31.461Z,99.99
2023-05-14T04:22:31.443Z,99.99
2023-05-14T04:23:31.453Z,99.99
2023-05-14T04:24:31.422Z,99.99
2023-05-14T04:25:31.427Z,99.99
2023-05-14T04:26:31.388Z,99.99
2023-05-14T04:27:31.418Z,99.99
2023-05-14T04:28:31.380Z,99.99
2023-05-14T04:29:31.360Z,99.99
2023-05-14T04:30:31.348Z,99.99
2023-05-14T04:31:31.332Z,99.99
2023-05-14T04:32:31.458Z,99.99
2023-05-14T04:33:31.315Z,99.99
2023-05-14T04:34:31.312Z,99.99
2023-05-14T04:35:31.297Z,99.99
2023-05-14T04:36:31.256Z,99.99
2023-05-14T04:37:31.300Z,99.99
2023-05-14T04:38:31.239Z,99.99
2023-05-14T04:39:31.259Z,99.99
2023-05-14T04:40:31.237Z,99.99
2023-05-14T04:41:31.270Z,99.99
2023-05-14T04:42:31.271Z,99.99
2023-05-14T04:43:31.239Z,99.99
2023-05-14T04:44:31.198Z,99.99
2023-05-14T04:45:32.847Z,99.99
2023-05-14T04:46:31.286Z,99.99
2023-05-14T04:47:31.152Z,99.99
2023-05-14T04:48:31.145Z,99.99
2023-05-14T04:49:31.135Z,99.99
2023-05-14T04:50:31.138Z,99.99
2023-05-14T04:51:31.146Z,99.99
2023-05-14T04:52:31.086Z,99.99
2023-05-14T04:53:31.089Z,99.99
2023-05-14T04:54:31.126Z,99.99
2023-05-14T04:55:31.096Z,99.99
2023-05-14T04:56:31.069Z,99.99
2023-05-14T04:57:31.037Z,99.99
2023-05-14T04:58:32.147Z,99.99
2023-05-14T04:59:31.024Z,99.99
2023-05-14T05:00:31.026Z,99.99
2023-05-14T05:01:31.111Z,99.99
2023-05-14T05:02:31.013Z,99.99
2023-05-14T05:03:30.973Z,99.99
2023-05-14T05:04:30.965Z,99.99
2023-05-14T05:05:31.116Z,99.99
2023-05-14T05:06:30.934Z,99.99
2023-05-14T05:07:30.929Z,99.99
2023-05-14T05:08:30.912Z,99.99
2023-05-14T05:09:30.904Z,99.99
2023-05-14T05:10:30.908Z,99.99
2023-05-14T05:11:30.903Z,99.99
2023-05-14T05:12:30.872Z,99.99
2023-05-14T05:13:30.857Z,99.99
2023-05-14T05:14:30.838Z,99.99
2023-05-14T05:15:30.858Z,99.99
2023-05-14T05:16:30.911Z,99.99
2023-05-14T05:17:30.873Z,99.99
2023-05-14T05:18:30.865Z,99.99
2023-05-14T05:19:42.264Z,99.99
2023-05-14T05:20:31.810Z,99.99
2023-05-14T05:21:30.775Z,99.99
2023-05-14T05:22:30.770Z,99.72
2023-05-14T05:23:30.758Z,99.06
2023-05-14T05:24:30.785Z,98.75
2023-05-14T05:25:30.741Z,97.02
2023-05-14T05:26:30.710Z,97.89
2023-05-14T05:27:30.695Z,97.08
2023-05-14T05:28:30.708Z,97.24
2023-05-14T05:29:30.718Z,96.11
2023-05-14T05:30:30.679Z,94.89
2023-05-14T05:31:30.674Z,94.27
2023-05-14T05:32:30.720Z,94.68
2023-05-14T05:33:30.674Z,93.88
2023-05-14T05:34:30.668Z,91.33
2023-05-14T05:35:30.630Z,90.00
2023-05-14T05:36:30.597Z,90.98
2023-05-14T05:37:30.605Z,89.18
2023-05-14T05:38:30.612Z,89.14
2023-05-14T05:39:30.583Z,90.12
2023-05-14T05:40:30.537Z,88.69
2023-05-14T05:41:30.559Z,87.23
2023-05-14T05:42:30.505Z,86.82
2023-05-14T05:43:30.551Z,85.84
2023-05-14T05:44:30.498Z,85.80
2023-05-14T05:45:30.501Z,86.88
2023-05-14T05:46:30.515Z,85.45
2023-05-14T05:47:30.570Z,84.94
2023-05-14T05:48:30.502Z,85.51
2023-05-14T05:49:30.455Z,83.62
2023-05-14T05:50:30.434Z,84.23
2023-05-14T05:51:30.451Z,84.74
2023-05-14T05:52:30.446Z,85.45
2023-05-14T05:53:30.411Z,84.80
2023-05-14T05:54:30.406Z,84.05
2023-05-14T05:55:30.396Z,83.98
2023-05-14T05:56:30.367Z,83.23
2023-05-14T05:57:30.395Z,83.34
2023-05-14T05:58:30.379Z,83.68
2023-05-14T05:59:30.329Z,84.45
2023-05-14T06:00:30.326Z,83.40
2023-05-14T06:01:30.314Z,81.73
2023-05-14T06:02:30.458Z,81.33
2023-05-14T06:03:30.285Z,81.67
2023-05-14T06:04:30.304Z,81.37
2023-05-14T06:05:30.290Z,80.85
2023-05-14T06:06:30.246Z,81.57
2023-05-14T06:07:30.274Z,82.18
2023-05-14T06:08:30.250Z,80.55
2023-05-14T06:09:30.216Z,80.76
2023-05-14T06:10:30.217Z,81.57
2023-05-14T06:11:30.223Z,81.16
2023-05-14T06:12:30.231Z,81.98
2023-05-14T06:13:30.163Z,80.35
2023-05-14T06:14:30.157Z,81.53
2023-05-14T06:15:30.147Z,80.88
2023-05-14T06:16:30.218Z,81.25
2023-05-14T06:17:30.145Z,79.22
2023-05-14T06:18:30.227Z,79.52
2023-05-14T06:19:30.111Z,78.85
2023-05-14T06:20:30.103Z,77.93
2023-05-14T06:21:30.132Z,78.23
2023-05-14T06:22:30.073Z,76.98
2023-05-14T06:23:30.062Z,76.87
2023-05-14T06:24:30.052Z,76.17
2023-05-14T06:25:30.067Z,76.47
2023-05-14T06:26:30.102Z,77.01
2023-05-14T06:27:30.004Z,76.91
2023-05-14T06:28:30.008Z,77.28
2023-05-14T06:29:29.988Z,76.67
2023-05-14T06:30:30.009Z,76.51
2023-05-14T06:31:30.011Z,76.64
2023-05-14T06:32:29.997Z,77.83
2023-05-14T06:33:29.945Z,76.81
2023-05-14T06:34:29.964Z,75.43
2023-05-14T06:35:29.950Z,76.03
2023-05-14T06:36:29.929Z,75.73
2023-05-14T06:37:29.902Z,76.75
2023-05-14T06:38:29.897Z,75.73
2023-05-14T06:39:29.924Z,76.40
2023-05-14T06:40:29.919Z,75.32
2023-05-14T06:41:29.863Z,76.71
2023-05-14T06:42:29.853Z,74.88
2023-05-14T06:43:29.823Z,76.17
2023-05-14T06:44:29.883Z,75.08
2023-05-14T06:45:31.218Z,75.69
2023-05-14T06:46:29.820Z,74.24
2023-05-14T06:47:29.845Z,73.83
2023-05-14T06:48:29.952Z,74.81
2023-05-14T06:49:29.822Z,74.68
2023-05-14T06:50:29.757Z,75.45
2023-05-14T06:51:29.748Z,73.49
2023-05-14T06:52:29.744Z,73.39
2023-05-14T06:53:29.723Z,73.09
2023-05-14T06:54:29.769Z,72.81
2023-05-14T06:55:29.732Z,70.89
2023-05-14T06:56:29.691Z,70.18
2023-05-14T06:57:29.698Z,69.98
2023-05-14T06:58:29.744Z,69.89
2023-05-14T06:59:29.703Z,68.74
2023-05-14T07:00:29.667Z,68.74
2023-05-14T07:01:29.702Z,66.69
2023-05-14T07:02:29.685Z,67.67
2023-05-14T07:03:29.636Z,66.22
2023-05-14T07:04:29.654Z,64.92
2023-05-14T07:05:29.597Z,64.25
2023-05-14T07:06:29.598Z,64.72
2023-05-14T07:07:29.577Z,63.45
2023-05-14T07:08:29.586Z,62.16
2023-05-14T07:09:29.570Z,61.69
2023-05-14T07:10:29.532Z,59.60
2023-05-14T07:11:29.545Z,61.27
2023-05-14T07:12:29.575Z,62.61
2023-05-14T07:13:29.583Z,63.01
2023-05-14T07:14:29.472Z,63.18
2023-05-14T07:15:29.477Z,63.18
2023-05-14T07:16:29.476Z,61.65
2023-05-14T07:17:29.665Z,60.77
2023-05-14T07:18:29.454Z,62.07
2023-05-14T07:19:29.444Z,62.26
2023-05-14T07:20:29.460Z,63.87
2023-05-14T07:21:29.418Z,64.39
2023-05-14T07:22:29.434Z,61.08
2023-05-14T07:23:29.390Z,58.31
2023-05-14T07:24:29.401Z,59.75
2023-05-14T07:25:29.365Z,60.88
2023-05-14T07:26:29.399Z,60.69
2023-05-14T07:27:29.380Z,60.44
2023-05-14T07:28:29.327Z,59.36
2023-05-14T07:29:29.366Z,59.83
2023-05-14T07:30:29.317Z,60.61
2023-05-14T07:31:29.409Z,60.39
2023-05-14T07:32:29.335Z,57.96
2023-05-14T07:33:29.285Z,57.61
2023-05-14T07:34:29.267Z,57.89
2023-05-14T07:35:29.245Z,58.22
2023-05-14T07:36:29.273Z,57.39
2023-05-14T07:37:29.230Z,55.82
2023-05-14T07:38:29.210Z,56.43
2023-05-14T07:39:29.198Z,55.32
2023-05-14T07:40:29.250Z,57.00
2023-05-14T07:41:29.224Z,56.80
2023-05-14T07:42:36.386Z,54.57
2023-05-14T07:43:30.155Z,55.65
2023-05-14T07:44:29.188Z,55.24
2023-05-14T07:45:29.188Z,53.52
2023-05-14T07:46:29.153Z,54.99
2023-05-14T07:47:29.224Z,52.29
2023-05-14T07:48:29.216Z,49.99
2023-05-14T07:49:29.112Z,54.35
2023-05-14T07:50:29.153Z,54.14
2023-05-14T07:51:29.067Z,54.82
2023-05-14T07:52:29.060Z,51.12
2023-05-14T07:53:29.051Z,52.07
2023-05-14T07:54:29.092Z,51.02
2023-05-14T07:55:29.060Z,54.06
2023-05-14T07:56:29.040Z,52.82
2023-05-14T07:57:29.020Z,53.06
2023-05-14T07:58:29.045Z,50.60
2023-05-14T07:59:29.025Z,51.72
2023-05-14T08:00:28.980Z,51.72
2023-05-14T08:01:28.966Z,49.18
2023-05-14T08:02:29.023Z,48.02
2023-05-14T08:03:29.118Z,49.50
2023-05-14T08:04:29.116Z,50.22
2023-05-14T08:05:28.936Z,52.04
2023-05-14T08:06:28.913Z,50.59
2023-05-14T08:07:28.899Z,51.50
2023-05-14T08:08:28.887Z,53.19
2023-05-14T08:09:28.896Z,50.37
2023-05-14T08:10:29.269Z,51.84
2023-05-14T08:11:28.833Z,51.52
2023-05-14T08:12:28.848Z,52.34
2023-05-14T08:13:28.874Z,51.62
2023-05-14T08:14:28.905Z,52.00
2023-05-14T08:15:28.837Z,48.14
2023-05-14T08:16:28.855Z,49.09
2023-05-14T08:17:28.800Z,50.07
2023-05-14T08:18:28.836Z,48.27
2023-05-14T08:19:28.802Z,49.44
2023-05-14T08:20:28.867Z,48.45
2023-05-14T08:21:28.795Z,48.14
2023-05-14T08:22:28.757Z,47.57
2023-05-14T08:23:28.752Z,48.94
2023-05-14T08:24:28.760Z,50.64
2023-05-14T08:25:28.758Z,49.49
2023-05-14T08:26:28.794Z,50.27
2023-05-14T08:27:28.749Z,48.37
2023-05-14T08:28:28.770Z,50.37
2023-05-14T08:29:28.692Z,48.60
2023-05-14T08:30:28.758Z,48.85
2023-05-14T08:31:28.672Z,48.14
2023-05-14T08:32:28.775Z,48.32
2023-05-14T08:33:28.624Z,46.62
2023-05-14T08:34:28.671Z,47.50
2023-05-14T08:35:28.634Z,47.69
2023-05-14T08:36:28.661Z,49.82
2023-05-14T08:37:28.656Z,50.37
2023-05-14T08:38:28.684Z,51.44
2023-05-14T08:39:28.574Z,52.67
2023-05-14T08:40:28.736Z,48.63
2023-05-14T08:41:28.593Z,49.52
2023-05-14T08:42:28.761Z,48.58
2023-05-14T08:43:28.748Z,47.66
2023-05-14T08:44:28.636Z,45.29
2023-05-14T08:45:28.532Z,45.81
2023-05-14T08:46:28.633Z,46.11
2023-05-14T08:47:28.540Z,46.66
2023-05-14T08:48:28.594Z,47.22
2023-05-14T08:49:28.455Z,49.52
2023-05-14T08:50:28.830Z,47.56
2023-05-14T08:51:28.549Z,45.24
2023-05-14T08:52:28.421Z,44.87
2023-05-14T08:53:28.491Z,44.79
2023-05-14T08:54:28.464Z,46.23
2023-05-14T08:55:28.507Z,45.45
2023-05-14T08:56:28.448Z,45.35
2023-05-14T08:57:28.436Z,46.27
2023-05-14T08:58:28.408Z,45.89
2023-05-14T08:59:28.359Z,47.07
2023-05-14T09:00:28.478Z,45.09
2023-05-14T09:01:28.396Z,45.69
2023-05-14T09:02:28.419Z,47.25
2023-05-14T09:03:28.344Z,45.07
2023-05-14T09:04:28.361Z,45.47
2023-05-14T09:05:28.365Z,45.77
2023-05-14T09:06:28.295Z,45.21
2023-05-14T09:07:28.270Z,45.31
2023-05-14T09:08:28.252Z,44.79
2023-05-14T09:09:28.232Z,44.41
2023-05-14T09:10:28.303Z,44.61
2023-05-14T09:11:28.455Z,44.43
2023-05-14T09:12:28.230Z,43.91
2023-05-14T09:13:28.469Z,43.71
2023-05-14T09:14:28.353Z,43.33
2023-05-14T09:15:28.248Z,44.03
2023-05-14T09:16:28.273Z,44.13
2023-05-14T09:17:28.223Z,44.11
2023-05-14T09:18:28.327Z,44.38
2023-05-14T09:19:28.202Z,45.56
2023-05-14T09:20:28.687Z,44.31
2023-05-14T09:21:28.123Z,43.41
2023-05-14T09:22:28.139Z,43.57
2023-05-14T09:23:28.152Z,41.95
2023-05-14T09:24:28.142Z,42.85
2023-05-14T09:25:28.071Z,42.27
2023-05-14T09:26:28.111Z,40.72
2023-05-14T09:27:28.063Z,44.02
2023-05-14T09:28:28.128Z,40.80
2023-05-14T09:29:28.120Z,41.88
2023-05-14T09:30:28.052Z,42.03
2023-05-14T09:31:28.049Z,42.77
2023-05-14T09:32:28.033Z,42.47
2023-05-14T09:33:28.067Z,42.07
2023-05-14T09:34:28.032Z,41.91
2023-05-14T09:35:27.991Z,44.98
2023-05-14T09:36:27.968Z,40.94
2023-05-14T09:37:27.987Z,40.48
2023-05-14T09:38:27.973Z,42.41
2023-05-14T09:39:27.962Z,44.17
2023-05-14T09:40:28.241Z,45.51
2023-05-14T09:41:27.907Z,45.12
2023-05-14T09:42:28.019Z,45.05
2023-05-14T09:43:28.052Z,43.29
2023-05-14T09:44:27.947Z,42.40
2023-05-14T09:45:27.906Z,42.65
2023-05-14T09:46:27.850Z,41.83
2023-05-14T09:47:27.976Z,40.94
2023-05-14T09:48:27.913Z,41.55
2023-05-14T09:49:27.826Z,42.51
2023-05-14T09:50:27.816Z,41.30
2023-05-14T09:51:27.865Z,42.19
2023-05-14T09:52:27.850Z,42.33
2023-05-14T09:53:27.795Z,40.64
2023-05-14T09:54:27.818Z,43.49
2023-05-14T09:55:27.816Z,41.46
2023-05-14T09:56:27.739Z,40.44
2023-05-14T09:57:27.783Z,39.65
2023-05-14T09:58:27.764Z,41.53
2023-05-14T09:59:27.739Z,39.43
2023-05-14T10:00:27.707Z,39.89
2023-05-14T10:01:27.755Z,40.42
2023-05-14T10:02:27.770Z,41.79
2023-05-14T10:03:27.753Z,39.89
2023-05-14T10:04:27.739Z,41.06
2023-05-14T10:05:27.693Z,41.02
2023-05-14T10:06:27.707Z,41.16
2023-05-14T10:07:27.632Z,41.89
2023-05-14T10:08:27.647Z,40.95
2023-05-14T10:09:27.620Z,40.08
2023-05-14T10:10:27.996Z,39.86
2023-05-14T10:11:27.616Z,41.30
2023-05-14T10:12:27.612Z,41.74
2023-05-14T10:13:27.596Z,40.78
2023-05-14T10:14:27.555Z,39.47
2023-05-14T10:15:27.607Z,38.97
2023-05-14T10:16:27.624Z,39.97
2023-05-14T10:17:27.594Z,40.33
2023-05-14T10:18:27.709Z,39.31
2023-05-14T10:19:27.569Z,37.11
2023-05-14T10:20:27.534Z,39.11
2023-05-14T10:21:27.494Z,39.54
2023-05-14T10:22:27.541Z,38.39
2023-05-14T10:23:27.492Z,38.95
2023-05-14T10:24:27.437Z,38.64
2023-05-14T10:25:27.469Z,38.14
2023-05-14T10:26:27.424Z,38.16
2023-05-14T10:27:27.415Z,38.01
2023-05-14T10:28:27.387Z,39.76
2023-05-14T10:29:27.430Z,40.84
2023-05-14T10:30:27.600Z,42.07
2023-05-14T10:31:27.438Z,39.97
2023-05-14T10:32:27.359Z,39.80
2023-05-14T10:33:27.366Z,41.25
2023-05-14T10:34:27.401Z,41.00
2023-05-14T10:35:27.304Z,41.71
2023-05-14T10:36:27.316Z,41.67
2023-05-14T10:37:27.314Z,41.71
2023-05-14T10:38:27.324Z,42.02
2023-05-14T10:39:27.327Z,42.89
2023-05-14T10:40:27.399Z,43.83
2023-05-14T10:41:27.261Z,43.35
2023-05-14T10:42:27.251Z,43.59
2023-05-14T10:43:27.248Z,42.63
2023-05-14T10:44:27.260Z,45.74
2023-05-14T10:45:27.225Z,43.40
2023-05-14T10:46:27.249Z,43.73
2023-05-14T10:47:27.186Z,41.60
2023-05-14T10:48:27.197Z,41.89
2023-05-14T10:49:42.317Z,41.11
2023-05-14T10:50:28.175Z,42.81
2023-05-14T10:51:27.181Z,41.58
2023-05-14T10:52:27.157Z,41.63
2023-05-14T10:53:27.176Z,39.94
2023-05-14T10:54:27.159Z,40.44
2023-05-14T10:55:27.095Z,42.41
2023-05-14T10:56:27.121Z,41.67
2023-05-14T10:57:27.099Z,37.88
2023-05-14T10:58:27.105Z,39.98
2023-05-14T10:59:27.070Z,41.52
2023-05-14T11:00:27.059Z,39.63
2023-05-14T11:01:27.086Z,37.46
2023-05-14T11:02:27.109Z,40.34
2023-05-14T11:03:27.093Z,39.29
2023-05-14T11:04:27.036Z,38.00
2023-05-14T11:05:27.022Z,37.98
2023-05-14T11:06:26.993Z,36.93
2023-05-14T11:07:27.034Z,37.96
2023-05-14T11:08:28.087Z,38.95
2023-05-14T11:09:26.992Z,38.89
2023-05-14T11:10:27.066Z,39.70
2023-05-14T11:11:26.949Z,38.53
2023-05-14T11:12:27.003Z,40.24
2023-05-14T11:13:26.966Z,40.72
2023-05-14T11:14:26.886Z,40.74
2023-05-14T11:15:26.915Z,39.90
2023-05-14T11:16:26.917Z,40.22
2023-05-14T11:17:26.941Z,42.41
2023-05-14T11:18:26.910Z,42.15
2023-05-14T11:19:26.867Z,43.73
2023-05-14T11:20:27.059Z,42.33
2023-05-14T11:21:26.948Z,41.33
2023-05-14T11:22:26.867Z,41.89
2023-05-14T11:23:26.862Z,42.49
2023-05-14T11:24:26.843Z,41.85
2023-05-14T11:25:26.803Z,42.97
2023-05-14T11:26:26.853Z,0.00
2023-05-14T11:27:26.776Z,100.00
2023-05-14T11:28:26.786Z,42.57
2023-05-14T11:29:26.758Z,42.15
2023-05-14T11:30:26.742Z,42.46
2023-05-14T11:31:26.822Z,43.87
2023-05-14T11:32:26.739Z,42.55
2023-05-14T11:33:26.726Z,42.79
2023-05-14T11:34:26.712Z,41.89
2023-05-14T11:35:26.745Z,44.89
2023-05-14T11:36:26.691Z,0.00
2023-05-14T11:37:26.653Z,44.01
2023-05-14T11:38:26.675Z,44.49
2023-05-14T11:39:26.666Z,46.31
2023-05-14T11:40:26.772Z,46.57
2023-05-14T11:41:26.636Z,44.97
2023-05-14T11:42:26.614Z,45.27
2023-05-14T11:43:26.622Z,45.97
2023-05-14T11:44:26.597Z,43.99
2023-05-14T11:45:26.630Z,46.72
2023-05-14T11:46:26.615Z,45.59
2023-05-14T11:47:26.630Z,45.07
2023-05-14T11:48:26.564Z,45.47
2023-05-14T11:49:26.614Z,46.17
2023-05-14T11:50:26.826Z,45.07
2023-05-14T11:51:26.552Z,44.70
2023-05-14T11:52:26.527Z,43.37
2023-05-14T11:53:26.508Z,44.45
2023-05-14T11:54:26.546Z,43.85
2023-05-14T11:55:26.483Z,43.57
2023-05-14T11:56:26.480Z,44.49
2023-05-14T11:57:26.446Z,44.32
2023-05-14T11:58:26.459Z,45.09
2023-05-14T11:59:26.439Z,44.42
2023-05-14T12:00:26.503Z,44.43
2023-05-14T12:01:26.453Z,45.62
2023-05-14T12:02:26.496Z,43.91
2023-05-14T12:03:26.806Z,44.01
2023-05-14T12:04:26.406Z,44.71
2023-05-14T12:05:26.356Z,44.46
2023-05-14T12:06:26.338Z,45.34
2023-05-14T12:07:26.344Z,45.81
2023-05-14T12:08:26.391Z,43.12
2023-05-14T12:09:26.401Z,44.32
2023-05-14T12:10:26.612Z,44.37
2023-05-14T12:11:26.305Z,45.55
2023-05-14T12:12:26.341Z,44.25
2023-05-14T12:13:26.353Z,43.37
2023-05-14T12:14:26.279Z,43.29
2023-05-14T12:15:26.282Z,43.49
2023-05-14T12:16:26.281Z,43.99
2023-05-14T12:17:26.343Z,45.39
2023-05-14T12:18:26.347Z,43.62
2023-05-14T12:19:26.360Z,44.42
2023-05-14T12:20:26.324Z,45.43
2023-05-14T12:21:26.187Z,45.94
2023-05-14T12:22:26.229Z,44.71
2023-05-14T12:23:26.216Z,45.21
2023-05-14T12:24:26.167Z,45.34
2023-05-14T12:25:26.155Z,44.93
2023-05-14T12:26:26.142Z,45.26
2023-05-14T12:27:26.221Z,45.08
2023-05-14T12:28:26.129Z,0.00
2023-05-14T12:29:26.111Z,100.00
2023-05-14T12:30:26.098Z,100.00
2023-05-14T12:31:26.116Z,100.00
2023-05-14T12:32:26.101Z,100.00
2023-05-14T12:33:26.072Z,100.00
2023-05-14T12:34:26.033Z,100.00
2023-05-14T12:35:26.182Z,100.00
2023-05-14T12:36:26.059Z,100.00
2023-05-14T12:37:26.059Z,0.00
2023-05-14T12:38:26.010Z,100.00
2023-05-14T12:39:25.988Z,100.00
2023-05-14T12:40:26.232Z,0.00
2023-05-14T12:41:26.053Z,100.00
2023-05-14T12:42:25.970Z,47.11
2023-05-14T12:43:25.940Z,48.01
2023-05-14T12:44:25.920Z,0.00
2023-05-14T12:45:26.111Z,100.00
2023-05-14T12:46:25.993Z,100.00
2023-05-14T12:47:25.990Z,100.00
2023-05-14T12:48:25.903Z,47.13
2023-05-14T12:49:25.866Z,47.33
2023-05-14T12:50:26.208Z,46.45
2023-05-14T12:51:25.883Z,100.00
2023-05-14T12:52:37.731Z,100.00